TimeIST,TemperatureF,Dew PointF,Humidity,Sea Level PressureIn,VisibilityMPH,Wind Direction,Wind SpeedMPH,Gust SpeedMPH,PrecipitationIn,Events,Conditions,WindDirDegrees,DateUTC
12:40 AM,91.4,57.2,31,29.65,2.5,SW,5.8,-,N/A,,Smoke,220,2014-05-07 19:10:00
1:10 AM,91.4,57.2,31,29.65,2.5,SW,5.8,-,N/A,,Smoke,230,2014-05-07 19:40:00
1:40 AM,91.4,57.2,31,29.65,2.5,SW,5.8,-,N/A,,Smoke,230,2014-05-07 20:10:00
2:10 AM,91.4,55.4,29,29.65,2.5,SW,4.6,-,N/A,,Smoke,230,2014-05-07 20:40:00
2:30 AM,90,62,30,29.65,2,SW,2.3,,,,Smoke,230,2014-05-07 21:00:00
2:40 AM,89.6,57.2,33,29.62,2.5,SW,6.9,-,N/A,,Smoke,220,2014-05-07 21:10:00
3:10 AM,89.6,57.2,33,29.62,2.5,West,6.9,-,N/A,,Smoke,260,2014-05-07 21:40:00
3:40 AM,91.4,55.4,29,29.62,2.5,West,6.9,-,N/A,,Smoke,280,2014-05-07 22:10:00
4:10 AM,89.6,55.4,31,29.62,2.5,West,6.9,-,N/A,,Smoke,280,2014-05-07 22:40:00
4:40 AM,87.8,55.4,33,29.65,2.5,WNW,8.1,-,N/A,,Smoke,300,2014-05-07 23:10:00
5:10 AM,87.8,53.6,31,29.65,2.5,WNW,5.8,-,N/A,,Smoke,300,2014-05-07 23:40:00
5:30 AM,88,57,25,29.66,2,NW,3.5,,,,,320,2014-05-08 00:00:00
5:40 AM,87.8,53.6,31,29.65,2.5,WNW,5.8,-,N/A,,Smoke,300,2014-05-08 00:10:00
6:10 AM,87.8,51.8,29,29.65,2.5,NW,5.8,-,N/A,,Smoke,310,2014-05-08 00:40:00
6:40 AM,86.0,51.8,31,29.68,2.5,NW,5.8,-,N/A,,Smoke,310,2014-05-08 01:10:00
7:10 AM,86.0,51.8,31,29.68,2.5,WNW,4.6,-,N/A,,Smoke,300,2014-05-08 01:40:00
7:40 AM,87.8,53.6,31,29.71,2.5,WNW,5.8,-,N/A,,Smoke,300,2014-05-08 02:10:00
8:10 AM,89.6,53.6,29,29.71,2.5,WNW,5.8,-,N/A,,Smoke,290,2014-05-08 02:40:00
8:30 AM,90,57,23,29.72,2,NW,3.5,,,,,320,2014-05-08 03:00:00
8:40 AM,93.2,53.6,26,29.71,2.5,NNW,6.9,-,N/A,,Smoke,330,2014-05-08 03:10:00
9:10 AM,96.8,53.6,23,29.71,2.5,North,9.2,-,N/A,,Smoke,350,2014-05-08 03:40:00
10:10 AM,102.2,50.0,17,29.71,3.1,NW,6.9,-,N/A,,Smoke,320,2014-05-08 04:40:00
10:40 AM,-9999,-9999,N/A,29.71,3.1,NNW,6.9,-,N/A,,Smoke,330,2014-05-08 05:10:00
11:10 AM,105.8,46.4,14,29.71,3.1,NNE,9.2,-,N/A,,Smoke,20,2014-05-08 05:40:00
11:30 AM,104,49,9,29.72,2,NW,5.8,,,,,320,2014-05-08 06:00:00
11:40 AM,107.6,46.4,13,29.68,3.1,NNW,11.5,-,N/A,,Smoke,340,2014-05-08 06:10:00
12:10 PM,107.6,46.4,13,29.65,3.1,NW,9.2,-,N/A,,Smoke,320,2014-05-08 06:40:00
12:40 PM,109.4,44.6,11,29.65,3.7,North,10.4,-,N/A,,Unknown,350,2014-05-08 07:10:00
1:10 PM,109.4,44.6,11,29.65,3.7,NNW,8.1,-,N/A,,Unknown,340,2014-05-08 07:40:00
1:40 PM,109.4,46.4,12,29.62,3.7,NW,8.1,-,N/A,,Unknown,320,2014-05-08 08:10:00
2:10 PM,109.4,46.4,12,29.62,3.7,North,6.9,-,N/A,,Unknown,10,2014-05-08 08:40:00
2:30 PM,108,53,10,29.65,2,West,4.6,,,,,270,2014-05-08 09:00:00
2:40 PM,111.2,44.6,11,29.59,3.7,NW,8.1,-,N/A,,Unknown,310,2014-05-08 09:10:00
3:10 PM,111.2,46.4,12,29.59,3.7,NW,5.8,-,N/A,,Unknown,310,2014-05-08 09:40:00
3:40 PM,111.2,44.6,11,29.59,3.7,WNW,8.1,-,N/A,,Unknown,300,2014-05-08 10:10:00
4:10 PM,111.2,46.4,12,29.56,3.7,NNW,5.8,-,N/A,,Unknown,330,2014-05-08 10:40:00
4:40 PM,111.2,46.4,12,29.56,3.7,NNW,6.9,-,N/A,,Partly Cloudy,330,2014-05-08 11:10:00
5:10 PM,111.2,44.6,11,29.56,3.7,NNW,4.6,-,N/A,,Partly Cloudy,330,2014-05-08 11:40:00
5:30 PM,107,54,10,29.60,2,Calm,Calm,,,,Partly Cloudy,,2014-05-08 12:00:00
5:40 PM,109.4,48.2,13,29.56,3.7,North,5.8,-,N/A,,Partly Cloudy,350,2014-05-08 12:10:00
6:10 PM,107.6,46.4,13,29.56,3.7,NNW,3.5,-,N/A,,Partly Cloudy,340,2014-05-08 12:40:00
7:10 PM,102.2,50.0,17,29.59,2.5,North,3.5,-,N/A,,Smoke,10,2014-05-08 13:40:00
7:40 PM,98.6,53.6,22,29.59,2.5,North,3.5,-,N/A,,Smoke,10,2014-05-08 14:10:00
8:10 PM,96.8,53.6,23,29.59,2.5,Calm,Calm,-,N/A,,Smoke,0,2014-05-08 14:40:00
8:30 PM,92,66,33,29.63,2,Calm,Calm,,,,Scattered Clouds,,2014-05-08 15:00:00
8:40 PM,96.8,53.6,23,29.62,2.5,Calm,Calm,-,N/A,,Smoke,0,2014-05-08 15:10:00
9:10 PM,96.8,53.6,23,29.62,2.5,Calm,Calm,-,N/A,,Smoke,0,2014-05-08 15:40:00
9:40 PM,95.0,51.8,23,29.65,2.5,NW,3.5,-,N/A,,Smoke,320,2014-05-08 16:10:00
10:10 PM,93.2,51.8,24,29.65,2.5,North,3.5,-,N/A,,Smoke,360,2014-05-08 16:40:00
10:40 PM,93.2,50.0,23,29.65,2.5,North,3.5,-,N/A,,Smoke,350,2014-05-08 17:10:00
11:10 PM,93.2,48.2,21,29.65,2.5,WNW,4.6,-,N/A,,Smoke,300,2014-05-08 17:40:00
11:30 PM,93,53,17,29.68,2,NW,3.5,,,,,320,2014-05-08 18:00:00
11:40 PM,95.0,46.4,19,29.65,2.5,WNW,4.6,-,N/A,,Smoke,290,2014-05-08 18:10:00